Time;durP1;ratioP1;P1;durP2;ratioP2;P2;SDS_P1;SDS_P2;PMS_P1;PMS_P2;Temp;Humidity;BMP_temperature;BMP_pressure;BME280_temperature;BME280_humidity;BME280_pressure;Samples;Min_cycle;Max_cycle;Signal;HPM_P1;HPM_P2
2022/06/08 00:01:54;;;;;;;15.20;6.35;;;;;;;11.80;91.54;99484.88;5105821;28;20328;-75
2022/06/08 00:04:23;;;;;;;16.08;7.28;;;;;;;11.84;91.72;99480.41;5105626;28;20045;-74
2022/06/08 00:06:50;;;;;;;18.38;7.18;;;;;;;11.84;91.97;99483.00;5104830;28;20035;-75
2022/06/08 00:09:16;;;;;;;15.45;6.55;;;;;;;11.81;92.13;99481.34;5105144;28;20028;-75
2022/06/08 00:11:41;;;;;;;11.35;6.35;;;;;;;11.84;92.27;99483.88;5105111;28;20066;-74
2022/06/08 00:14:07;;;;;;;16.88;7.05;;;;;;;11.75;92.16;99463.34;5087152;28;20020;-74
2022/06/08 00:16:32;;;;;;;15.40;7.63;;;;;;;11.89;92.44;99486.34;5086577;28;20028;-74
2022/06/08 00:18:58;;;;;;;12.90;5.85;;;;;;;11.96;92.02;99479.22;5105033;28;20168;-74
2022/06/08 00:21:23;;;;;;;17.75;6.50;;;;;;;11.90;92.38;99470.69;5104647;28;20020;-74
2022/06/08 00:23:49;;;;;;;12.63;5.90;;;;;;;11.93;92.18;99466.31;5104848;28;20032;-74
2022/06/08 00:26:15;;;;;;;14.00;6.25;;;;;;;11.95;92.06;99467.13;5105146;28;20046;-74
2022/06/08 00:28:40;;;;;;;13.38;6.85;;;;;;;11.94;92.23;99452.38;5104954;28;20028;-75
2022/06/08 00:31:06;;;;;;;20.52;7.47;;;;;;;11.93;92.35;99455.91;5104711;28;20072;-74
2022/06/08 00:33:31;;;;;;;14.60;7.05;;;;;;;11.88;92.63;99461.25;5104622;28;20035;-73
2022/06/08 00:35:57;;;;;;;17.92;6.95;;;;;;;11.84;92.80;99452.66;5104423;28;20046;-74
2022/06/08 00:38:22;;;;;;;7.75;4.50;;;;;;;11.85;93.10;99456.97;5104394;28;20058;-75
2022/06/08 00:41:08;;;;;;;20.35;7.97;;;;;;;11.79;93.81;99449.34;5104423;28;20388;-75
2022/06/08 00:43:35;;;;;;;11.40;5.00;;;;;;;11.82;93.44;99440.63;5104657;28;20030;-75
2022/06/08 00:46:02;;;;;;;14.13;5.25;;;;;;;11.89;93.37;99440.38;5104503;28;20031;-75
2022/06/08 00:48:32;;;;;;;11.43;6.18;;;;;;;11.83;93.80;99432.75;5104519;28;20042;-75
2022/06/08 00:50:58;;;;;;;18.77;7.97;;;;;;;11.84;94.02;99437.06;5104340;28;20116;-76
2022/06/08 00:53:54;;;;;;;21.40;9.82;;;;;;;11.75;94.63;99430.38;5104553;28;20031;-76
2022/06/08 00:56:24;;;;;;;20.65;9.48;;;;;;;11.80;94.63;99443.25;5087243;28;20044;-75
2022/06/08 00:58:51;;;;;;;23.33;9.85;;;;;;;11.87;94.55;99443.91;5104434;28;20050;-75
2022/06/08 01:01:16;;;;;;;29.35;8.73;;;;;;;11.84;94.73;99434.47;5104168;28;20051;-75
2022/06/08 01:03:42;;;;;;;21.58;10.52;;;;;;;11.87;95.01;99438.72;5104271;28;20487;-75
2022/06/08 01:06:18;;;;;;;24.55;11.70;;;;;;;11.88;95.13;99430.88;5104222;28;20020;-75
2022/06/08 01:08:47;;;;;;;23.27;8.40;;;;;;;11.89;95.23;99431.72;5104168;28;20028;-75
2022/06/08 01:11:43;;;;;;;24.83;10.73;;;;;;;11.93;95.29;99419.50;5103996;28;20032;-75
2022/06/08 01:14:13;;;;;;;26.55;9.80;;;;;;;11.94;95.07;99414.25;5104198;28;20047;-74
2022/06/08 01:16:41;;;;;;;19.00;9.15;;;;;;;11.99;94.84;99417.56;5104130;28;20084;-74
2022/06/08 01:19:10;;;;;;;27.05;10.02;;;;;;;11.95;95.26;99407.28;5103362;28;20468;-74
2022/06/08 01:21:35;;;;;;;21.95;9.15;;;;;;;12.01;94.88;99409.72;5085451;28;20035;-74
2022/06/08 01:24:05;;;;;;;19.70;7.90;;;;;;;11.93;95.19;99409.94;5103835;28;20054;-74
2022/06/08 01:26:50;;;;;;;14.52;7.88;;;;;;;11.95;95.28;99409.91;5103761;28;20034;-74
2022/06/08 01:29:25;;;;;;;17.48;8.73;;;;;;;11.95;95.24;99408.13;5089270;28;20032;-75
2022/06/08 01:32:08;;;;;;;14.82;7.78;;;;;;;11.98;95.17;99407.19;5103783;28;20024;-74
2022/06/08 01:35:09;;;;;;;23.10;7.93;;;;;;;12.00;95.38;99394.97;5104802;28;20027;-75
2022/06/08 01:38:10;;;;;;;18.55;7.53;;;;;;;11.90;95.59;99403.06;5061931;28;20039;-75
2022/06/08 01:40:55;;;;;;;0.30;0.30;;;;;;;11.98;95.37;99400.22;5103711;28;20016;-73
2022/06/08 01:44:03;;;;;;;0.20;0.20;;;;;;;11.86;96.11;99403.22;5103529;28;20020;-73
2022/06/08 01:46:40;;;;;;;0.20;0.20;;;;;;;11.89;96.17;99393.56;5064370;28;20036;-74
2022/06/08 01:49:40;;;;;;;0.20;0.20;;;;;;;11.87;96.18;99386.69;5103929;28;20104;-74
2022/06/08 01:52:13;;;;;;;0.20;0.20;;;;;;;11.88;96.61;99384.06;5103385;28;20050;-74
2022/06/08 01:55:10;;;;;;;0.20;0.20;;;;;;;11.87;97.11;99387.56;5103371;28;20024;-73
2022/06/08 01:57:50;;;;;;;2.05;1.95;;;;;;;11.82;97.35;99380.81;5103186;28;20124;-72
2022/06/08 02:00:21;;;;;;;0.20;0.20;;;;;;;11.82;97.46;99381.63;5103471;28;20028;-74
2022/06/08 02:03:19;;;;;;;0.30;0.30;;;;;;;11.78;98.02;99375.69;5103717;28;20028;-74
2022/06/08 02:05:53;;;;;;;0.20;0.20;;;;;;;11.81;98.38;99385.13;5103291;28;20260;-73
2022/06/08 02:08:47;;;;;;;7.57;3.38;;;;;;;11.77;98.42;99380.94;5103363;28;20511;-73
2022/06/08 02:11:42;;;;;;;0.30;0.30;;;;;;;11.81;98.67;99382.53;5084963;28;20468;-73
2022/06/08 02:14:14;;;;;;;0.30;0.30;;;;;;;11.77;98.81;99384.38;5103311;28;20082;-73
2022/06/08 02:16:39;;;;;;;0.30;0.30;;;;;;;11.78;99.23;99382.63;5103562;28;20028;-73
2022/06/08 02:19:21;;;;;;;0.20;0.20;;;;;;;11.80;99.21;99373.03;5103290;28;20028;-73
2022/06/08 02:21:57;;;;;;;0.30;0.30;;;;;;;11.80;99.32;99373.03;5103008;28;20099;-73
2022/06/08 02:24:28;;;;;;;0.20;0.20;;;;;;;11.84;99.40;99379.84;5103190;28;20050;-73
2022/06/08 02:27:01;;;;;;;0.30;0.30;;;;;;;11.79;99.39;99363.53;5102931;28;20231;-72
2022/06/08 02:29:36;;;;;;;0.20;0.20;;;;;;;11.82;99.75;99373.00;5103297;28;20055;-72
2022/06/08 02:35:08;;;;;;;0.47;0.47;;;;;;;11.80;100.00;99360.03;5107616;28;20065;-72
2022/06/08 02:37:36;;;;;;;0.50;0.50;;;;;;;11.86;99.99;99372.84;5106970;28;20054;-72
2022/06/08 02:40:11;;;;;;;0.30;0.30;;;;;;;11.90;99.66;99371.84;5106842;28;20055;-72
2022/06/08 02:42:41;;;;;;;0.30;0.30;;;;;;;11.84;99.95;99366.84;5107141;28;20028;-73
2022/06/08 02:45:14;;;;;;;0.47;0.47;;;;;;;11.85;100.00;99373.75;5107185;28;20028;-72
2022/06/08 02:47:41;;;;;;;0.30;0.30;;;;;;;11.80;100.00;99365.25;5106781;28;20028;-73
2022/06/08 02:50:12;;;;;;;0.30;0.30;;;;;;;11.81;100.00;99366.06;5106569;28;20047;-72
2022/06/08 02:52:44;;;;;;;0.30;0.30;;;;;;;11.86;100.00;99366.78;5106640;28;20118;-72
2022/06/08 02:55:37;;;;;;;0.30;0.30;;;;;;;11.92;100.00;99365.78;5106788;28;20024;-73
2022/06/08 02:58:09;;;;;;;0.30;0.30;;;;;;;11.87;100.00;99364.16;5106612;28;20048;-73
2022/06/08 03:00:46;;;;;;;0.30;0.30;;;;;;;11.89;100.00;99367.56;5106676;28;20063;-73
2022/06/08 03:03:20;;;;;;;0.20;0.20;;;;;;;11.86;100.00;99372.84;5106529;28;20032;-72
2022/06/08 03:06:00;;;;;;;0.20;0.20;;;;;;;11.89;100.00;99364.97;5106277;28;20522;-72
2022/06/08 03:08:30;;;;;;;0.20;0.20;;;;;;;11.88;100.00;99360.66;5106705;28;20375;-72
2022/06/08 03:11:00;;;;;;;0.20;0.20;;;;;;;11.87;100.00;99369.34;5106673;28;20028;-72
2022/06/08 03:13:51;;;;;;;0.20;0.20;;;;;;;11.86;100.00;99372.84;5088241;28;20098;-73
2022/06/08 03:16:32;;;;;;;0.30;0.30;;;;;;;11.88;100.00;99370.22;5095190;28;20111;-73
2022/06/08 03:18:58;;;;;;;0.20;0.20;;;;;;;11.84;100.00;99371.19;5106309;28;20253;-72
2022/06/08 03:21:24;;;;;;;0.20;0.20;;;;;;;11.87;100.00;99382.34;5106079;28;20130;-72
2022/06/08 03:23:49;;;;;;;0.20;0.20;;;;;;;11.90;100.00;99371.84;5106299;28;20069;-72
2022/06/08 03:26:20;;;;;;;0.20;0.20;;;;;;;11.90;100.00;99374.47;5106119;28;20055;-72
2022/06/08 03:28:47;;;;;;;0.20;0.20;;;;;;;11.95;100.00;99378.69;5106174;28;20028;-72
2022/06/08 03:31:13;;;;;;;0.30;0.30;;;;;;;11.95;100.00;99368.28;5105875;28;20028;-71
2022/06/08 03:33:38;;;;;;;0.30;0.30;;;;;;;11.96;100.00;99375.19;5105995;28;20076;-71
2022/06/08 03:36:05;;;;;;;1.65;1.25;;;;;;;11.95;100.00;99378.69;5105682;28;20050;-72
2022/06/08 03:38:31;;;;;;;0.68;0.68;;;;;;;11.98;100.00;99374.22;5105893;28;20020;-72
2022/06/08 03:40:56;;;;;;;0.20;0.20;;;;;;;11.98;100.00;99373.38;5105755;28;20039;-72
2022/06/08 03:43:21;;;;;;;0.25;0.25;;;;;;;12.02;100.00;99373.25;5105244;28;20023;-72
2022/06/08 03:45:53;;;;;;;0.20;0.20;;;;;;;12.01;100.00;99368.91;5105905;28;20024;-72
2022/06/08 03:48:19;;;;;;;0.20;0.20;;;;;;;12.02;100.00;99367.19;5105757;28;20088;-72
2022/06/08 03:50:48;;;;;;;0.30;0.30;;;;;;;12.06;100.00;99373.16;5087496;28;20036;-71
2022/06/08 03:53:18;;;;;;;0.20;0.20;;;;;;;12.05;100.00;99367.09;5105720;28;20030;-71
2022/06/08 03:55:45;;;;;;;0.20;0.20;;;;;;;12.10;100.00;99370.44;5105294;28;20016;-71
2022/06/08 03:58:11;;;;;;;0.20;0.20;;;;;;;12.07;100.00;99375.69;5087233;28;20443;-71
2022/06/08 04:00:37;;;;;;;0.30;0.30;;;;;;;12.10;100.00;99387.78;5105213;28;20382;-71
2022/06/08 04:03:04;;;;;;;0.20;0.20;;;;;;;12.10;100.00;99375.63;5105272;28;20020;-70
2022/06/08 04:05:30;;;;;;;0.68;0.50;;;;;;;12.11;100.00;99379.06;5105084;28;20024;-70
2022/06/08 04:07:56;;;;;;;0.20;0.20;;;;;;;12.05;100.00;99379.22;5105252;28;20049;-70
2022/06/08 04:10:21;;;;;;;0.30;0.30;;;;;;;12.05;100.00;99385.28;5104689;28;20012;-70
2022/06/08 04:12:47;;;;;;;0.35;0.35;;;;;;;12.05;100.00;99380.09;5104821;28;20020;-70
2022/06/08 04:15:41;;;;;;;0.20;0.20;;;;;;;12.06;100.00;99381.78;5105088;28;20443;-69
2022/06/08 04:17:58;;;;;;;0.20;0.20;;;;;;;12.05;100.00;99374.03;5104899;28;20051;-70
2022/06/08 04:20:23;;;;;;;0.20;0.20;;;;;;;12.10;100.00;99378.22;5086589;28;20039;-69
2022/06/08 04:22:48;;;;;;;0.20;0.20;;;;;;;12.12;100.00;99386.00;5086523;28;20024;-69
2022/06/08 04:25:14;;;;;;;0.32;0.32;;;;;;;12.12;100.00;99381.63;5104877;28;20019;-69
2022/06/08 04:27:39;;;;;;;0.30;0.30;;;;;;;12.09;100.00;99386.91;5104833;28;20032;-69
2022/06/08 04:30:06;;;;;;;0.30;0.30;;;;;;;12.16;100.00;99392.78;5086857;28;20020;-69
2022/06/08 04:32:31;;;;;;;0.30;0.30;;;;;;;12.13;100.00;99387.69;5104961;28;20028;-69
2022/06/08 04:34:57;;;;;;;0.20;0.20;;;;;;;12.14;100.00;99384.19;5104653;28;20035;-70
2022/06/08 04:37:22;;;;;;;9.32;3.40;;;;;;;12.14;100.00;99390.22;5104234;28;20024;-69
2022/06/08 04:39:48;;;;;;;0.30;0.30;;;;;;;12.12;100.00;99402.44;5104311;28;20028;-73
2022/06/08 04:42:14;;;;;;;0.20;0.20;;;;;;;12.10;100.00;99399.03;5104233;28;20055;-68
2022/06/08 04:44:39;;;;;;;0.30;0.30;;;;;;;12.15;100.00;99404.09;5086346;28;20054;-68
2022/06/08 04:47:05;;;;;;;0.30;0.30;;;;;;;12.10;100.00;99391.25;5104585;28;20024;-68
2022/06/08 04:49:30;;;;;;;1.08;0.63;;;;;;;12.16;100.00;99389.34;5104135;28;20047;-69
2022/06/08 04:51:56;;;;;;;0.20;0.20;;;;;;;12.15;100.00;99385.88;5103547;28;20076;-68
2022/06/08 04:54:21;;;;;;;0.20;0.20;;;;;;;12.18;100.00;99387.53;5102987;28;20391;-69
2022/06/08 04:56:47;;;;;;;0.20;0.20;;;;;;;12.18;100.00;99387.53;5103982;28;20048;-67
2022/06/08 04:59:12;;;;;;;0.30;0.30;;;;;;;12.17;100.00;99391.03;5104037;28;20026;-68
2022/06/08 05:01:37;;;;;;;0.20;0.20;;;;;;;12.14;100.00;99389.41;5103851;28;20083;-69
2022/06/08 05:04:03;;;;;;;0.28;0.28;;;;;;;12.16;100.00;99378.94;5104165;28;20040;-69
2022/06/08 05:06:29;;;;;;;0.20;0.20;;;;;;;12.14;100.00;99377.22;5103727;28;20054;-70
2022/06/08 05:08:54;;;;;;;0.30;0.30;;;;;;;12.13;100.00;99390.28;5103862;28;20556;-69
2022/06/08 05:11:20;;;;;;;0.30;0.30;;;;;;;12.14;100.00;99384.19;5103525;28;20044;-69
2022/06/08 05:13:48;;;;;;;0.20;0.20;;;;;;;12.12;100.00;99383.38;5085648;28;20039;-70
2022/06/08 05:16:14;;;;;;;0.20;0.20;;;;;;;12.15;100.00;99378.09;5103622;28;20024;-74
2022/06/08 05:18:40;;;;;;;0.20;0.20;;;;;;;12.13;100.00;99377.28;5103629;28;20028;-71
2022/06/08 05:21:05;;;;;;;0.30;0.30;;;;;;;12.12;100.00;99381.63;5085056;28;20020;-68
2022/06/08 05:23:36;;;;;;;0.85;0.73;;;;;;;12.11;100.00;99384.25;5103631;28;20047;-70
2022/06/08 05:26:02;;;;;;;0.20;0.20;;;;;;;12.16;100.00;99386.75;5103982;28;20050;-73
2022/06/08 05:28:29;;;;;;;1.33;1.23;;;;;;;12.15;100.00;99383.28;5103756;28;20047;-72
2022/06/08 05:30:56;;;;;;;0.35;0.35;;;;;;;12.15;100.00;99385.88;5103829;28;20024;-75
2022/06/08 05:33:23;;;;;;;0.30;0.30;;;;;;;12.12;100.00;99376.41;5103784;28;20054;-76
2022/06/08 05:35:48;;;;;;;0.40;0.40;;;;;;;12.13;100.00;99378.13;5103373;28;20020;-73
2022/06/08 05:38:14;;;;;;;0.20;0.20;;;;;;;12.12;100.00;99378.19;5103584;28;20027;-71
2022/06/08 05:40:39;;;;;;;0.20;0.20;;;;;;;12.10;100.00;99373.03;5103088;28;20039;-71
2022/06/08 05:43:07;;;;;;;0.20;0.20;;;;;;;12.10;100.00;99380.84;5103740;28;20046;-71
2022/06/08 05:45:33;;;;;;;0.30;0.30;;;;;;;12.14;100.00;99384.19;5103854;28;20020;-72
2022/06/08 05:47:59;;;;;;;0.30;0.30;;;;;;;12.11;100.00;99368.66;5103992;28;20027;-72
2022/06/08 05:50:26;;;;;;;0.30;0.30;;;;;;;12.20;100.00;99388.34;5103626;28;20024;-72
2022/06/08 05:52:51;;;;;;;1.00;1.00;;;;;;;12.22;100.00;99376.16;5103490;28;20028;-72
2022/06/08 05:55:19;;;;;;;0.30;0.30;;;;;;;12.26;100.00;99382.94;5103645;28;20058;-72
2022/06/08 05:57:45;;;;;;;0.30;0.30;;;;;;;12.33;100.00;99384.44;5102988;28;20315;-73
2022/06/08 06:00:16;;;;;;;0.20;0.20;;;;;;;12.37;100.00;99378.25;5085091;28;20040;-74
2022/06/08 06:02:43;;;;;;;0.30;0.30;;;;;;;12.41;100.00;99385.97;5103431;28;20066;-74
2022/06/08 06:05:11;;;;;;;0.30;0.30;;;;;;;12.39;100.00;99380.81;5087207;28;20285;-75
2022/06/08 06:07:37;;;;;;;0.20;0.20;;;;;;;12.38;100.00;99376.50;5109643;28;20038;-75
2022/06/08 06:10:04;;;;;;;0.22;0.22;;;;;;;12.42;100.00;99388.50;5091967;28;20044;-76
2022/06/08 06:12:30;;;;;;;4.22;1.48;;;;;;;12.37;100.00;99387.78;5110070;28;20028;-75
2022/06/08 06:14:57;;;;;;;0.20;0.20;;;;;;;12.41;100.00;99386.81;5092208;28;20023;-75
2022/06/08 06:17:22;;;;;;;0.30;0.30;;;;;;;12.44;100.00;99378.91;5110466;28;20288;-75
2022/06/08 06:19:48;;;;;;;0.20;0.20;;;;;;;12.46;100.00;99374.47;5110231;28;20279;-74
2022/06/08 06:22:13;;;;;;;0.20;0.20;;;;;;;12.49;100.00;99390.00;5110050;28;20028;-75
2022/06/08 06:24:39;;;;;;;0.38;0.38;;;;;;;12.46;100.00;99384.91;5109816;28;20073;-73
2022/06/08 06:27:04;;;;;;;0.20;0.20;;;;;;;12.51;100.00;99384.75;5091789;28;20020;-75
2022/06/08 06:29:30;;;;;;;0.52;0.52;;;;;;;12.56;100.00;99393.25;5109756;28;20020;-73
2022/06/08 06:32:00;;;;;;;0.30;0.30;;;;;;;12.57;100.00;99394.94;5109678;28;20024;-73
2022/06/08 06:34:27;;;;;;;0.20;0.20;;;;;;;12.62;100.00;99395.66;5109965;28;20020;-73
2022/06/08 06:36:58;;;;;;;0.30;0.30;;;;;;;12.64;100.00;99393.88;5109737;28;20039;-74
2022/06/08 06:39:26;;;;;;;0.20;0.20;;;;;;;12.72;100.00;99392.75;5109880;28;20016;-74
2022/06/08 06:41:52;;;;;;;0.20;0.20;;;;;;;12.75;100.00;99396.09;5091277;28;20392;-73
2022/06/08 06:44:19;;;;;;;0.40;0.40;;;;;;;12.76;100.00;99386.53;5109755;28;20028;-74
2022/06/08 06:46:44;;;;;;;0.30;0.30;;;;;;;12.80;100.00;99390.72;5109661;28;20024;-74
2022/06/08 06:49:10;;;;;;;0.60;0.60;;;;;;;12.80;100.00;99411.56;5109658;28;20107;-75
2022/06/08 06:51:35;;;;;;;0.50;0.50;;;;;;;12.80;100.00;99405.50;5090979;28;20059;-77
2022/06/08 06:54:06;;;;;;;0.40;0.40;;;;;;;12.76;99.67;99410.81;5091260;28;20088;-76
2022/06/08 06:56:35;;;;;;;0.82;0.82;;;;;;;12.80;99.69;99408.97;5109551;28;20024;-74
2022/06/08 06:59:02;;;;;;;0.73;0.73;;;;;;;12.85;100.00;99412.28;5109704;28;20031;-76
2022/06/08 07:01:27;;;;;;;2.28;2.08;;;;;;;12.76;99.81;99400.41;5109608;28;20020;-75
2022/06/08 07:03:53;;;;;;;0.50;0.50;;;;;;;12.73;99.27;99415.28;5109777;28;20385;-76
2022/06/08 07:06:18;;;;;;;0.50;0.50;;;;;;;12.74;99.44;99419.59;5091197;28;20399;-75
2022/06/08 07:08:44;;;;;;;0.20;0.20;;;;;;;12.72;99.79;99411.84;5109331;28;20020;-74
2022/06/08 07:13:56;;;;;;;0.20;0.20;;;;;;;12.81;99.88;99426.28;5109584;28;20130;-75
2022/06/08 07:16:21;;;;;;;0.25;0.25;;;;;;;12.80;99.71;99418.53;5107706;28;20028;-75
2022/06/08 07:18:47;;;;;;;0.30;0.30;;;;;;;12.86;99.85;99420.94;5105692;28;20027;-75
2022/06/08 07:21:12;;;;;;;0.30;0.30;;;;;;;12.84;99.67;99426.19;5105683;28;20426;-75
2022/06/08 07:23:38;;;;;;;1.17;1.10;;;;;;;12.82;99.61;99424.53;5105853;28;20193;-74
2022/06/08 07:26:04;;;;;;;0.50;0.50;;;;;;;12.88;99.71;99427.78;5105992;28;20043;-75
2022/06/08 07:28:29;;;;;;;0.30;0.30;;;;;;;12.95;99.83;99435.41;5105820;28;20055;-74
2022/06/08 07:30:55;;;;;;;0.30;0.30;;;;;;;12.98;100.00;99422.28;5105573;28;20027;-74
2022/06/08 07:33:20;;;;;;;1.60;0.93;;;;;;;13.13;100.00;99432.16;5105821;28;20036;-74
2022/06/08 07:35:47;;;;;;;0.40;0.40;;;;;;;13.23;99.93;99432.69;5105531;28;20031;-75
2022/06/08 07:38:12;;;;;;;0.30;0.30;;;;;;;13.25;99.07;99445.66;5105932;28;20035;-76
2022/06/08 07:40:38;;;;;;;0.20;0.20;;;;;;;13.19;98.93;99438.06;5087450;28;20118;-74
2022/06/08 07:43:03;;;;;;;0.55;0.55;;;;;;;13.29;99.24;99442.03;5087634;28;20024;-74
2022/06/08 07:45:29;;;;;;;0.20;0.20;;;;;;;13.25;98.55;99435.25;5105698;28;20553;-74
2022/06/08 07:50:41;;;;;;;0.60;0.60;;;;;;;13.40;98.13;99444.28;5105768;28;20028;-74
2022/06/08 07:53:07;;;;;;;0.20;0.20;;;;;;;13.39;97.92;99442.56;5087137;28;20028;-74
2022/06/08 07:55:32;;;;;;;0.20;0.20;;;;;;;13.44;97.67;99455.44;5105274;28;20452;-74
2022/06/08 07:57:58;;;;;;;0.20;0.20;;;;;;;13.46;97.90;99454.50;5105165;28;20056;-74
2022/06/08 08:00:23;;;;;;;0.30;0.30;;;;;;;13.48;97.96;99452.66;5105444;28;20016;-74
2022/06/08 08:02:49;;;;;;;0.28;0.28;;;;;;;13.62;97.99;99452.22;5105354;28;20034;-74
2022/06/08 08:05:16;;;;;;;0.20;0.20;;;;;;;13.73;97.72;99456.16;5105343;28;20075;-75
2022/06/08 08:07:42;;;;;;;0.77;0.77;;;;;;;13.77;97.32;99460.34;5105128;28;20095;-73
2022/06/08 08:10:12;;;;;;;0.22;0.22;;;;;;;13.65;96.25;99447.78;5105471;28;20016;-73
2022/06/08 08:12:38;;;;;;;0.30;0.30;;;;;;;13.77;96.77;99456.91;5105408;28;20266;-73
2022/06/08 08:15:04;;;;;;;0.20;0.20;;;;;;;13.78;96.67;99461.22;5105478;28;20028;-73
2022/06/08 08:17:30;;;;;;;0.25;0.25;;;;;;;13.82;96.43;99466.25;5105822;28;20032;-73
2022/06/08 08:19:55;;;;;;;0.63;0.63;;;;;;;13.91;96.62;99466.84;5105084;28;20024;-74
2022/06/08 08:22:21;;;;;;;0.20;0.20;;;;;;;13.95;95.49;99468.41;5105249;28;20076;-74
2022/06/08 08:24:47;;;;;;;1.05;0.98;;;;;;;14.04;95.18;99473.28;5087080;28;20028;-73
2022/06/08 08:27:13;;;;;;;0.20;0.20;;;;;;;14.11;94.54;99471.28;5105164;28;20027;-73
2022/06/08 08:29:38;;;;;;;0.30;0.30;;;;;;;14.27;95.29;99482.00;5105154;28;20396;-74
2022/06/08 08:32:04;;;;;;;0.20;0.20;;;;;;;14.33;94.11;99478.31;5105164;28;20020;-73
2022/06/08 08:34:30;;;;;;;0.20;0.20;;;;;;;14.33;94.10;99480.91;5105272;28;20032;-73
2022/06/08 08:36:55;;;;;;;0.20;0.20;;;;;;;14.44;94.10;99480.50;5104732;28;20031;-73
2022/06/08 08:39:22;;;;;;;0.30;0.30;;;;;;;14.53;92.32;99487.97;5104807;28;20028;-73
2022/06/08 08:44:36;;;;;;;0.20;0.20;;;;;;;14.72;90.89;99492.44;5104939;28;20042;-72
2022/06/08 08:47:35;;;;;;;0.47;0.47;;;;;;;14.71;89.74;99485.53;5104767;28;20024;-73
2022/06/08 08:50:30;;;;;;;0.40;0.40;;;;;;;14.72;90.63;99497.66;5104656;28;20032;-72
2022/06/08 08:53:20;;;;;;;0.20;0.20;;;;;;;14.64;89.90;99500.59;5104638;28;20673;-72
2022/06/08 08:55:48;;;;;;;0.20;0.20;;;;;;;14.60;89.46;99509.47;5104620;28;20016;-72
2022/06/08 08:58:18;;;;;;;0.30;0.30;;;;;;;14.49;88.86;99502.03;5104374;28;20079;-72
2022/06/08 09:00:54;;;;;;;0.20;0.20;;;;;;;14.37;88.24;99508.59;5104223;28;20499;-72
2022/06/08 09:03:25;;;;;;;0.30;0.30;;;;;;;14.42;89.58;99509.28;5104458;28;20051;-72
2022/06/08 09:05:54;;;;;;;0.30;0.30;;;;;;;14.40;90.90;99508.47;5104448;28;20035;-72
2022/06/08 09:08:22;;;;;;;0.30;0.30;;;;;;;14.53;91.04;99505.38;5104696;28;20095;-72
2022/06/08 09:10:48;;;;;;;0.20;0.20;;;;;;;14.60;90.15;99507.69;5104376;28;20020;-72
2022/06/08 09:13:22;;;;;;;0.20;0.20;;;;;;;14.64;90.31;99511.03;5104432;28;20024;-72
2022/06/08 09:15:57;;;;;;;0.28;0.28;;;;;;;14.71;90.31;99519.47;5104315;28;20032;-71
2022/06/08 09:18:34;;;;;;;0.20;0.20;;;;;;;14.81;89.99;99510.38;5104341;28;20023;-72
2022/06/08 09:21:21;;;;;;;0.22;0.22;;;;;;;14.87;88.15;99511.91;5104113;28;20028;-72
2022/06/08 09:23:51;;;;;;;0.45;0.45;;;;;;;15.03;88.07;99525.19;5103989;28;20031;-72
2022/06/08 09:26:25;;;;;;;0.20;0.20;;;;;;;15.04;86.42;99519.06;5104197;28;20024;-72
2022/06/08 09:29:20;;;;;;;0.20;0.20;;;;;;;15.10;86.74;99524.03;5103906;28;20027;-71
2022/06/08 09:31:46;;;;;;;0.60;0.60;;;;;;;15.11;86.74;99515.25;5101486;28;20040;-72
2022/06/08 09:34:19;;;;;;;0.30;0.30;;;;;;;15.08;84.76;99522.41;5104181;28;20522;-72
2022/06/08 09:37:01;;;;;;;0.20;0.20;;;;;;;15.03;85.43;99519.94;5103649;28;20138;-72
2022/06/08 09:39:28;;;;;;;0.20;0.20;;;;;;;15.04;86.32;99526.91;5103331;28;20024;-72
2022/06/08 09:41:53;;;;;;;0.40;0.40;;;;;;;15.07;85.41;99528.53;5103476;28;20107;-72
2022/06/08 09:44:30;;;;;;;0.20;0.20;;;;;;;15.04;84.51;99529.50;5103572;28;20031;-72
2022/06/08 09:52:56;;;;;;;0.30;0.30;;;;;;;14.86;85.31;99534.56;5103587;28;20089;-72
2022/06/08 09:55:53;;;;;;;0.20;0.20;;;;;;;14.82;84.59;99535.63;5085530;28;20028;-72
2022/06/08 09:58:37;;;;;;;0.20;0.20;;;;;;;14.86;86.32;99526.72;5103770;28;20044;-72
2022/06/08 10:01:18;;;;;;;0.20;0.20;;;;;;;15.00;86.68;99533.13;5103570;28;20071;-72
2022/06/08 10:03:49;;;;;;;1.67;1.23;;;;;;;14.86;84.77;99529.34;5103764;28;20031;-71
2022/06/08 10:06:30;;;;;;;0.20;0.20;;;;;;;14.73;84.86;99535.94;5103531;28;20034;-72
2022/06/08 10:08:58;;;;;;;0.50;0.50;;;;;;;14.54;84.68;99541.03;5102868;28;20028;-72
2022/06/08 10:11:43;;;;;;;0.20;0.20;;;;;;;14.39;85.10;99532.91;5103600;28;20012;-72
2022/06/08 10:14:12;;;;;;;0.20;0.20;;;;;;;14.38;86.42;99539.88;5103885;28;20059;-72
2022/06/08 10:16:44;;;;;;;0.30;0.30;;;;;;;14.47;87.55;99541.25;5103437;28;20472;-72
2022/06/08 10:19:14;;;;;;;;;;;;;;;14.62;85.40;99539.84;5103848;28;20051;-72
2022/06/08 10:21:42;;;;;;;0.30;0.30;;;;;;;14.59;85.91;99545.19;5103508;28;19934;-72
2022/06/08 10:24:26;;;;;;;0.43;0.43;;;;;;;14.55;85.54;99532.28;5103492;28;20034;-72
2022/06/08 10:26:57;;;;;;;0.20;0.20;;;;;;;14.62;85.79;99542.44;5103365;28;20051;-72
2022/06/08 10:29:45;;;;;;;0.20;0.20;;;;;;;14.73;84.83;99535.94;5103200;28;20138;-72
2022/06/08 10:32:20;;;;;;;0.32;0.32;;;;;;;14.75;84.43;99534.13;5103057;28;20043;-72
2022/06/08 10:34:52;;;;;;;0.55;0.55;;;;;;;14.70;84.18;99543.88;5103011;28;20031;-72
2022/06/08 10:37:22;;;;;;;0.30;0.30;;;;;;;14.69;84.87;99540.44;5102897;28;20026;-72
2022/06/08 10:39:49;;;;;;;0.28;0.28;;;;;;;14.71;84.60;99543.00;5103165;28;20047;-73
2022/06/08 10:42:48;;;;;;;0.20;0.20;;;;;;;14.62;83.75;99549.41;5102931;28;20016;-72
2022/06/08 10:45:36;;;;;;;2.28;1.42;;;;;;;14.56;83.19;99542.69;5058207;28;20036;-73
2022/06/08 10:48:11;;;;;;;0.20;0.20;;;;;;;14.60;84.00;99546.03;5103174;28;20028;-73
2022/06/08 10:50:37;;;;;;;0.25;0.25;;;;;;;14.62;84.69;99549.41;5102805;28;20119;-72
2022/06/08 10:56:24;;;;;;;0.20;0.20;;;;;;;14.58;84.00;99540.88;5106926;28;20058;-72
2022/06/08 10:58:54;;;;;;;0.20;0.20;;;;;;;14.58;83.94;99532.19;5106915;28;20028;-72
2022/06/08 11:01:33;;;;;;;0.30;0.30;;;;;;;14.52;83.34;99542.88;5088412;28;20059;-72
2022/06/08 11:04:02;;;;;;;0.20;0.20;;;;;;;14.55;84.81;99547.97;5106847;28;20061;-72
2022/06/08 11:06:53;;;;;;;0.30;0.30;;;;;;;14.63;83.61;99556.38;5106423;28;20024;-72
2022/06/08 11:09:43;;;;;;;0.88;0.88;;;;;;;14.69;83.49;99556.13;5106644;28;20051;-72
2022/06/08 11:12:11;;;;;;;1.95;1.85;;;;;;;14.66;83.83;99553.63;5093920;28;20040;-73
2022/06/08 11:14:42;;;;;;;0.20;0.20;;;;;;;14.69;83.20;99558.72;5106593;28;20034;-72
2022/06/08 11:17:12;;;;;;;0.30;0.30;;;;;;;14.73;83.51;99567.28;5106475;28;20023;-72
2022/06/08 11:19:38;;;;;;;0.20;0.20;;;;;;;14.73;83.44;99568.13;5106362;28;20039;-73
2022/06/08 11:22:11;;;;;;;0.20;0.20;;;;;;;14.67;83.19;99564.91;5106028;28;20391;-72
2022/06/08 11:24:40;;;;;;;0.20;0.20;;;;;;;14.67;84.13;99565.78;5106380;28;20016;-72
2022/06/08 11:27:12;;;;;;;0.20;0.20;;;;;;;14.80;84.67;99579.25;5106235;28;20023;-73
2022/06/08 11:29:48;;;;;;;0.30;0.30;;;;;;;14.87;84.38;99580.69;5106129;28;20011;-73
2022/06/08 11:32:40;;;;;;;0.20;0.20;;;;;;;14.88;83.53;99571.09;5105891;28;20051;-72
2022/06/08 11:35:12;;;;;;;0.30;0.30;;;;;;;14.83;82.95;99583.47;5087835;28;20024;-72
2022/06/08 11:37:49;;;;;;;0.22;0.22;;;;;;;14.80;83.51;99578.38;5106033;28;20027;-72
2022/06/08 11:40:30;;;;;;;0.40;0.40;;;;;;;14.82;82.86;99582.66;5105686;28;20020;-72
2022/06/08 11:43:13;;;;;;;0.30;0.30;;;;;;;14.87;83.20;99580.69;5105951;28;20050;-72
2022/06/08 11:45:40;;;;;;;0.20;0.20;;;;;;;14.88;82.67;99584.16;5105767;28;20016;-72
2022/06/08 11:48:13;;;;;;;0.20;0.20;;;;;;;14.82;82.10;99574.81;5105739;28;20056;-72
2022/06/08 11:50:53;;;;;;;0.20;0.20;;;;;;;15.03;83.53;99582.69;5105690;28;20020;-73
2022/06/08 11:53:29;;;;;;;0.20;0.20;;;;;;;15.12;84.01;99586.69;5105476;28;20012;-73
2022/06/08 11:56:19;;;;;;;0.20;0.20;;;;;;;15.09;82.07;99584.22;5105807;28;20055;-73
2022/06/08 11:58:59;;;;;;;0.20;0.20;;;;;;;14.98;81.69;99582.03;5105281;28;20116;-71
2022/06/08 12:01:30;;;;;;;0.20;0.20;;;;;;;15.01;81.81;99581.91;5105179;28;20078;-72
2022/06/08 12:04:04;;;;;;;0.20;0.20;;;;;;;14.98;82.61;99587.25;5105179;28;20354;-72
2022/06/08 12:06:33;;;;;;;0.20;0.20;;;;;;;14.98;82.46;99595.09;5105516;28;20324;-72
2022/06/08 12:09:06;;;;;;;2.85;1.70;;;;;;;14.92;82.38;99590.94;5105426;28;20034;-71